Time;durP1;ratioP1;P1;durP2;ratioP2;P2;SDS_P1;SDS_P2;PMS_P1;PMS_P2;Temp;Humidity;BMP_temperature;BMP_pressure;BME280_temperature;BME280_humidity;BME280_pressure;Samples;Min_cycle;Max_cycle;Signal;HPM_P1;HPM_P2
2023/06/08 00:00:08;;;;;;;;;18.00;15.67;;;;;21.79;48.96;100782.19;6241728;22;45266;-74
2023/06/08 00:02:35;;;;;;;;;14.67;14.33;;;;;21.76;49.49;100780.47;6268302;22;45397;-74
2023/06/08 00:05:02;;;;;;;;;17.67;17.67;;;;;21.76;49.27;100777.75;6243707;22;45475;-74
2023/06/08 00:07:30;;;;;;;;;15.00;15.00;;;;;21.81;48.83;100776.72;6244153;22;45375;-73
2023/06/08 00:09:57;;;;;;;;;17.00;17.00;;;;;21.76;48.75;100775.06;6242105;22;45349;-74
2023/06/08 00:12:24;;;;;;;;;16.00;14.00;;;;;21.67;48.99;100767.25;6244389;22;45725;-74
2023/06/08 00:14:53;;;;;;;;;17.00;17.00;;;;;21.69;49.25;100764.47;6243560;22;45410;-75
2023/06/08 00:17:18;;;;;;;;;16.33;15.00;;;;;21.68;49.98;100768.13;6241812;22;45691;-75
2023/06/08 00:19:43;;;;;;;;;21.33;17.00;;;;;21.66;49.22;100767.28;6268269;22;45422;-74
2023/06/08 00:22:13;;;;;;;;;17.67;15.67;;;;;21.63;50.02;100765.53;6244297;22;45321;-74
2023/06/08 00:24:39;;;;;;;;;17.33;17.33;;;;;21.58;49.68;100756.69;6242300;22;46459;-74
2023/06/08 00:27:05;;;;;;;;;14.67;13.00;;;;;21.62;49.03;100766.50;6242025;22;45329;-74
2023/06/08 00:29:32;;;;;;;;;17.67;16.33;;;;;21.62;48.95;100760.19;6245085;22;45426;-75
2023/06/08 00:31:57;;;;;;;;;19.33;18.67;;;;;21.58;49.49;100759.41;6244995;22;44777;-73
2023/06/08 00:34:24;;;;;;;;;19.67;19.33;;;;;21.58;50.56;100757.56;6239011;22;47664;-73
2023/06/08 00:36:50;;;;;;;;;18.00;15.00;;;;;21.53;49.79;100748.72;6244039;22;45397;-74
2023/06/08 00:39:15;;;;;;;;;14.67;14.67;;;;;21.50;49.70;100745.22;6267568;22;45334;-75
2023/06/08 00:41:40;;;;;;;;;18.00;16.33;;;;;21.49;49.48;100740.72;6244960;22;45382;-74
2023/06/08 00:44:07;;;;;;;;;17.33;17.33;;;;;21.50;49.90;100743.41;6244702;22;45582;-74
2023/06/08 00:46:36;;;;;;;;;18.33;18.33;;;;;21.42;49.55;100742.72;6242336;22;45801;-74
2023/06/08 00:49:02;;;;;;;;;19.00;19.00;;;;;21.42;50.22;100737.31;6244296;22;45302;-74
2023/06/08 00:51:33;;;;;;;;;20.33;18.67;;;;;21.44;49.76;100737.31;6242203;22;45702;-73
2023/06/08 00:54:00;;;;;;;;;20.00;20.00;;;;;21.35;50.04;100727.63;6244478;22;45468;-74
2023/06/08 00:56:31;;;;;;;;;19.67;19.67;;;;;21.33;50.73;100729.47;6242150;22;45486;-73
2023/06/08 00:59:00;;;;;;;;;20.33;18.33;;;;;21.30;50.72;100726.88;6244705;22;45817;-74
2023/06/08 01:01:30;;;;;;;;;18.67;18.67;;;;;21.32;50.88;100731.28;6244768;22;45324;-74
2023/06/08 01:04:05;;;;;;;;;21.33;18.67;;;;;21.29;51.09;100734.09;6241133;22;48100;-75
2023/06/08 01:06:35;;;;;;;;;23.33;22.33;;;;;21.25;51.44;100734.22;6243754;22;44721;-74
2023/06/08 01:09:15;;;;;;;;;22.67;21.00;;;;;21.30;50.73;100719.63;6243546;22;45543;-74
2023/06/08 01:12:15;;;;;;;;;20.67;20.67;;;;;21.28;51.62;100739.56;6243467;22;45404;-74
2023/06/08 01:15:07;;;;;;;;;22.33;22.33;;;;;21.18;52.16;100736.22;6243664;22;45349;-74
2023/06/08 01:17:40;;;;;;;;;20.67;20.00;;;;;21.10;52.48;100730.16;6243378;22;45435;-73
2023/06/08 01:20:32;;;;;;;;;24.33;24.00;;;;;21.12;51.87;100731.00;6243970;22;45427;-74
2023/06/08 01:23:37;;;;;;;;;23.00;23.00;;;;;21.11;52.41;100734.66;6243031;22;45691;-74
2023/06/08 01:26:04;;;;;;;;;23.33;21.33;;;;;21.03;51.93;100737.59;6242489;22;46202;-74
2023/06/08 01:28:30;;;;;;;;;23.33;23.33;;;;;20.97;52.35;100727.81;6244305;22;45774;-74
2023/06/08 01:30:58;;;;;;;;;22.67;21.00;;;;;20.98;52.04;100726.00;6242470;22;45362;-74
2023/06/08 01:33:27;;;;;;;;;16.67;16.67;;;;;21.07;51.80;100720.34;6244471;22;45321;-74
2023/06/08 01:35:59;;;;;;;;;22.00;21.33;;;;;21.11;52.08;100726.53;6244399;22;45357;-74
2023/06/08 01:38:42;;;;;;;;;24.00;22.00;;;;;21.15;52.48;100729.09;6243735;22;45358;-75
2023/06/08 01:41:16;;;;;;;;;22.33;20.00;;;;;21.09;52.85;100740.09;6242608;22;45406;-74
2023/06/08 01:43:47;;;;;;;;;21.00;21.00;;;;;21.07;52.86;100741.09;6242663;22;45374;-73
2023/06/08 01:46:15;;;;;;;;;26.33;23.00;;;;;20.97;54.05;100738.63;6244149;22;45427;-73
2023/06/08 01:48:45;;;;;;;;;24.00;21.67;;;;;20.95;53.08;100739.63;6244576;22;45361;-74
2023/06/08 01:51:13;;;;;;;;;23.33;22.00;;;;;20.86;54.17;100740.75;6242015;22;45366;-73
2023/06/08 01:53:40;;;;;;;;;22.00;20.67;;;;;20.87;54.70;100738.97;6267941;22;45594;-74
2023/06/08 01:56:05;;;;;;;;;23.33;21.67;;;;;20.74;54.24;100733.91;6241890;22;47758;-74
2023/06/08 01:58:31;;;;;;;;;27.67;27.33;;;;;20.72;53.72;100727.66;6267318;22;45446;-75
2023/06/08 02:00:56;;;;;;;;;22.33;22.00;;;;;20.73;54.86;100734.81;6244517;22;45376;-75
2023/06/08 02:03:21;;;;;;;;;25.67;25.67;;;;;20.74;54.00;100742.00;6267685;22;45375;-74
2023/06/08 02:05:47;;;;;;;;;23.33;22.00;;;;;20.70;54.56;100740.34;6267685;22;45997;-74
2023/06/08 02:08:12;;;;;;;;;25.00;24.50;;;;;20.71;54.30;100744.78;6244052;22;45397;-74
2023/06/08 02:10:37;;;;;;;;;26.00;25.00;;;;;20.70;53.62;100750.22;6268688;22;45781;-75
2023/06/08 02:13:03;;;;;;;;;20.67;20.67;;;;;20.70;54.05;100744.81;6244496;22;45389;-74
2023/06/08 02:15:31;;;;;;;;;25.00;23.00;;;;;20.72;54.54;100748.38;6247616;22;45408;-74
2023/06/08 02:17:59;;;;;;;;;25.33;23.33;;;;;20.69;54.46;100743.06;6245126;22;45536;-74
2023/06/08 02:20:25;;;;;;;;;24.67;24.67;;;;;20.66;54.33;100743.13;6245540;22;45328;-74
2023/06/08 02:22:51;;;;;;;;;26.00;24.33;;;;;20.58;56.25;100741.56;6245284;22;45561;-74
2023/06/08 02:25:16;;;;;;;;;24.67;24.33;;;;;20.56;55.17;100737.97;6244327;22;46700;-74
2023/06/08 02:27:43;;;;;;;;;24.67;24.33;;;;;20.54;55.04;100731.72;6243715;22;45869;-74
2023/06/08 02:30:49;;;;;;;;;24.33;24.33;;;;;20.65;56.50;100734.16;6246149;22;45425;-73
2023/06/08 02:33:14;;;;;;;;;26.33;26.00;;;;;20.47;56.11;100730.09;6270262;22;45462;-74
2023/06/08 02:35:46;;;;;;;;;27.33;25.67;;;;;20.49;55.33;100736.34;6245249;22;46244;-74
2023/06/08 02:38:19;;;;;;;;;22.33;22.00;;;;;20.50;55.86;100726.41;6243895;22;45677;-73
2023/06/08 02:40:48;;;;;;;;;27.00;24.67;;;;;20.38;55.88;100730.38;6245540;22;45256;-74
2023/06/08 02:43:14;;;;;;;;;28.33;25.33;;;;;20.35;55.84;100733.13;6244704;22;45449;-74
2023/06/08 02:45:40;;;;;;;;;26.67;24.33;;;;;20.30;55.68;100730.56;6246393;22;45373;-73
2023/06/08 02:48:06;;;;;;;;;23.00;23.00;;;;;20.26;56.31;100727.97;6246676;22;45349;-74
2023/06/08 02:50:31;;;;;;;;;32.00;27.67;;;;;20.18;57.52;100722.78;6245017;22;45338;-74
2023/06/08 02:52:57;;;;;;;;;27.67;27.00;;;;;20.12;57.94;100721.13;6246624;22;45438;-74
2023/06/08 02:55:22;;;;;;;;;22.00;20.00;;;;;20.01;58.56;100727.72;6246464;22;46196;-74
2023/06/08 02:57:49;;;;;;;;;25.33;24.67;;;;;19.96;57.43;100725.13;6244243;22;45604;-75
2023/06/08 03:00:15;;;;;;;;;24.33;24.00;;;;;19.93;57.60;100723.38;6271053;22;45338;-75
2023/06/08 03:02:41;;;;;;;;;24.33;24.33;;;;;19.99;57.08;100725.03;6247378;22;45353;-75
2023/06/08 03:05:07;;;;;;;;;25.67;25.33;;;;;19.93;57.94;100736.00;6270161;22;48396;-75
2023/06/08 03:07:40;;;;;;;;;25.00;24.00;;;;;19.90;57.84;100728.00;6246869;22;45480;-75
2023/06/08 03:10:06;;;;;;;;;20.33;20.33;;;;;19.91;57.09;100727.06;6247553;22;45366;-75
2023/06/08 03:12:32;;;;;;;;;25.00;24.00;;;;;19.92;57.73;100734.25;6245231;22;45896;-74
2023/06/08 03:14:58;;;;;;;;;21.67;21.00;;;;;19.93;57.14;100725.19;6247356;22;46080;-74
2023/06/08 03:17:24;;;;;;;;;32.67;25.00;;;;;19.95;56.93;100720.66;6247223;22;45404;-75
2023/06/08 03:19:50;;;;;;;;;30.33;26.33;;;;;19.98;56.45;100724.16;6244438;22;45446;-73
2023/06/08 03:22:19;;;;;;;;;28.33;25.00;;;;;19.93;57.58;100726.09;6248085;22;45252;-74
2023/06/08 03:24:48;;;;;;;;;25.00;23.33;;;;;19.92;57.14;100724.31;6247068;22;46194;-74
2023/06/08 03:27:16;;;;;;;;;23.67;23.67;;;;;19.99;57.05;100722.34;6268623;22;45386;-74
2023/06/08 03:29:42;;;;;;;;;27.33;27.00;;;;;19.93;56.72;100715.28;6246030;22;45325;-74
2023/06/08 03:32:08;;;;;;;;;28.00;28.00;;;;;19.97;56.80;100716.09;6245252;22;45319;-74
2023/06/08 03:34:33;;;;;;;;;29.00;26.00;;;;;19.95;57.55;100712.56;6244146;22;46296;-74
2023/06/08 03:36:58;;;;;;;;;27.00;23.00;;;;;19.94;57.44;100710.78;6244987;22;45366;-74
2023/06/08 03:39:26;;;;;;;;;23.00;23.00;;;;;19.96;57.00;100711.66;6243915;22;45286;-74
2023/06/08 03:41:52;;;;;;;;;29.00;23.67;;;;;19.90;56.55;100717.19;6244932;22;45449;-74
2023/06/08 03:44:17;;;;;;;;;27.00;24.67;;;;;19.89;55.96;100710.88;6242870;22;46914;-74
2023/06/08 03:46:45;;;;;;;;;25.67;25.67;;;;;19.87;56.24;100712.75;6245025;22;45382;-74
2023/06/08 03:49:10;;;;;;;;;25.33;23.33;;;;;19.84;56.35;100703.84;6244990;22;45349;-74
2023/06/08 03:51:37;;;;;;;;;27.00;27.00;;;;;19.79;55.97;100706.66;6245005;22;45435;-74
2023/06/08 03:54:02;;;;;;;;;23.67;23.00;;;;;19.81;56.72;100712.00;6243401;22;45848;-74
2023/06/08 03:56:28;;;;;;;;;27.67;26.67;;;;;19.76;56.51;100710.31;6242891;22;45350;-75
2023/06/08 03:58:53;;;;;;;;;25.00;22.67;;;;;19.75;56.53;100710.34;6242920;22;45418;-73
2023/06/08 04:01:22;;;;;;;;;30.67;27.00;;;;;19.70;56.85;100702.34;6243251;22;45476;-74
2023/06/08 04:03:47;;;;;;;;;26.67;26.33;;;;;19.70;56.80;100707.72;6242256;22;46060;-74
2023/06/08 04:06:16;;;;;;;;;24.33;24.33;;;;;19.70;57.12;100699.63;6241860;22;45513;-74
2023/06/08 04:08:44;;;;;;;;;24.33;22.67;;;;;19.72;57.30;100705.03;6268258;22;45374;-74
2023/06/08 04:11:11;;;;;;;;;29.33;25.00;;;;;19.65;58.21;100709.63;6245547;22;45412;-74
2023/06/08 04:13:40;;;;;;;;;28.33;27.00;;;;;19.64;57.27;100699.78;6241731;22;47614;-75
2023/06/08 04:16:09;;;;;;;;;26.00;24.33;;;;;19.74;57.75;100709.47;6245145;22;45361;-74
2023/06/08 04:18:35;;;;;;;;;21.00;19.67;;;;;19.64;57.95;100701.59;6244725;22;45330;-74
2023/06/08 04:21:05;;;;;;;;;36.33;32.00;;;;;19.65;58.10;100706.94;6245472;22;45305;-75
2023/06/08 04:23:31;;;;;;;;;33.00;32.00;;;;;19.63;58.58;100706.09;6242911;22;47186;-75
2023/06/08 04:25:57;;;;;;;;;30.33;29.33;;;;;19.65;58.42;100706.94;6244721;22;45306;-74
2023/06/08 04:28:22;;;;;;;;;33.33;32.00;;;;;19.68;58.41;100701.50;6244190;22;45370;-74
2023/06/08 04:30:48;;;;;;;;;34.67;32.00;;;;;19.74;58.66;100698.66;6245696;22;45357;-74
2023/06/08 04:33:17;;;;;;;;;32.00;31.67;;;;;19.73;59.65;100705.00;6243267;22;45374;-74
2023/06/08 04:35:43;;;;;;;;;33.00;32.00;;;;;19.75;59.10;100695.06;6244791;22;45785;-73
2023/06/08 04:38:14;;;;;;;;;29.00;29.00;;;;;19.88;59.03;100705.56;6242349;22;45433;-74
2023/06/08 04:40:53;;;;;;;;;37.00;33.00;;;;;19.93;58.10;100704.50;6243196;22;45402;-75
2023/06/08 04:43:20;;;;;;;;;34.33;33.33;;;;;19.84;58.73;100701.16;6245031;22;45800;-74
2023/06/08 04:45:49;;;;;;;;;37.00;32.00;;;;;19.87;58.84;100703.75;6244786;22;44834;-75
2023/06/08 04:48:15;;;;;;;;;19.00;17.67;;;;;19.94;58.72;100706.28;6244708;22;45573;-74
2023/06/08 04:50:45;;;;;;;;;35.00;32.33;;;;;20.07;59.41;100704.13;6244370;22;45497;-74
2023/06/08 04:53:12;;;;;;;;;36.67;32.00;;;;;20.14;58.62;100710.28;6244606;22;45374;-74
2023/06/08 04:55:37;;;;;;;;;35.67;31.67;;;;;20.22;58.69;100704.66;6244680;22;45329;-74
2023/06/08 04:58:03;;;;;;;;;30.00;30.00;;;;;20.27;58.71;100708.16;6243852;22;45907;-74
2023/06/08 05:00:28;;;;;;;;;40.00;34.33;;;;;20.32;58.55;100703.50;6244325;22;45635;-74
2023/06/08 05:02:53;;;;;;;;;32.33;31.67;;;;;20.31;58.72;100699.03;6244861;22;46132;-74
2023/06/08 05:05:20;;;;;;;;;36.67;34.00;;;;;20.41;59.14;100702.38;6244082;22;45344;-75
2023/06/08 05:07:46;;;;;;;;;30.33;30.33;;;;;20.36;59.02;100702.50;6244686;22;45408;-75
2023/06/08 05:10:11;;;;;;;;;32.67;31.00;;;;;20.39;58.57;100702.41;6244417;22;45336;-74
2023/06/08 05:12:37;;;;;;;;;35.67;32.67;;;;;20.50;59.08;100704.81;6243559;22;46120;-74
2023/06/08 05:15:02;;;;;;;;;39.67;33.33;;;;;20.58;59.26;100705.47;6244351;22;45400;-74
2023/06/08 05:17:29;;;;;;;;;40.33;36.00;;;;;20.72;58.96;100710.53;6244142;22;45432;-74
2023/06/08 05:19:54;;;;;;;;;31.00;29.33;;;;;20.68;59.33;100704.34;6245233;22;45365;-74
2023/06/08 05:22:20;;;;;;;;;39.00;35.00;;;;;20.71;59.28;100706.94;6242323;22;46990;-75
2023/06/08 05:24:47;;;;;;;;;37.00;34.00;;;;;20.76;59.11;100701.41;6244116;22;45302;-75
2023/06/08 05:27:13;;;;;;;;;32.00;31.00;;;;;20.81;59.73;100702.16;6268010;22;45361;-75
2023/06/08 05:29:38;;;;;;;;;42.33;36.00;;;;;20.85;59.29;100695.75;6243698;22;45666;-75
2023/06/08 05:32:05;;;;;;;;;41.67;35.67;;;;;20.96;59.25;100696.31;6244210;22;47055;-75
2023/06/08 05:34:30;;;;;;;;;40.25;34.75;;;;;21.01;60.57;100701.59;6239090;22;45326;-75
2023/06/08 05:36:56;;;;;;;;;46.50;37.50;;;;;21.03;60.74;100698.84;6268016;22;45429;-75
2023/06/08 05:39:21;;;;;;;;;47.50;38.25;;;;;20.94;61.18;100692.75;6244310;22;45320;-75
2023/06/08 05:41:47;;;;;;;;;48.00;38.00;;;;;20.90;61.20;100698.31;6243896;22;45537;-74
2023/06/08 05:44:12;;;;;;;;;44.25;38.25;;;;;20.93;61.66;100693.69;6244179;22;45383;-74
2023/06/08 05:46:37;;;;;;;;;44.00;35.67;;;;;20.96;61.64;100693.59;6243793;22;45456;-73
2023/06/08 05:49:06;;;;;;;;;39.67;34.00;;;;;20.99;62.18;100692.63;6241875;22;45781;-74
2023/06/08 05:51:31;;;;;;;;;48.00;38.00;;;;;20.98;62.03;100689.03;6241707;22;46971;-74
2023/06/08 05:53:57;;;;;;;;;45.33;36.67;;;;;20.94;62.47;100681.06;6241156;22;45573;-74
2023/06/08 05:56:23;;;;;;;;;37.67;34.00;;;;;21.04;61.24;100687.09;6245315;22;45567;-74
2023/06/08 05:58:50;;;;;;;;;44.00;37.67;;;;;21.12;60.95;100679.63;6242802;22;45398;-74
2023/06/08 06:01:19;;;;;;;;;39.67;35.33;;;;;21.25;60.85;100678.31;6244312;22;46291;-75
2023/06/08 06:03:44;;;;;;;;;45.33;36.00;;;;;21.27;61.03;100689.06;6243722;22;44799;-74
2023/06/08 06:06:11;;;;;;;;;46.00;39.00;;;;;21.23;61.29;100685.59;6241208;22;45343;-74
2023/06/08 06:08:39;;;;;;;;;46.33;38.00;;;;;21.26;60.42;100684.63;6241815;22;45528;-74
2023/06/08 06:11:05;;;;;;;;;47.67;39.67;;;;;21.29;60.42;100685.41;6243120;22;45347;-75
2023/06/08 06:13:31;;;;;;;;;44.33;37.67;;;;;21.43;61.44;100687.72;6243198;22;45279;-75
2023/06/08 06:15:58;;;;;;;;;46.00;37.67;;;;;21.34;61.30;100683.44;6243733;22;45475;-74
2023/06/08 06:18:24;;;;;;;;;50.00;38.50;;;;;21.29;60.96;100680.00;6240903;22;45470;-75
2023/06/08 06:20:50;;;;;;;;;42.00;36.67;;;;;21.34;60.96;100686.13;6243425;22;45777;-75
2023/06/08 06:23:16;;;;;;;;;48.00;38.33;;;;;21.38;60.15;100689.63;6232267;22;45397;-75
2023/06/08 06:25:43;;;;;;;;;35.67;34.00;;;;;21.52;60.67;100676.59;6235126;22;45434;-74
2023/06/08 06:28:08;;;;;;;;;38.50;34.00;;;;;21.73;60.04;100680.44;6233267;22;45730;-75
2023/06/08 06:30:35;;;;;;;;;46.33;39.67;;;;;21.77;59.77;100676.69;6233371;22;46706;-75
2023/06/08 06:33:01;;;;;;;;;44.00;37.67;;;;;21.73;59.66;100675.00;6231926;22;45398;-74
2023/06/08 06:35:26;;;;;;;;;40.33;34.33;;;;;21.76;59.67;100685.72;6235201;22;45496;-74
2023/06/08 06:37:54;;;;;;;;;42.67;35.00;;;;;21.99;59.79;100675.94;6246477;22;45343;-73
2023/06/08 06:40:20;;;;;;;;;43.00;38.00;;;;;22.00;59.30;100679.56;6258943;22;45837;-75
2023/06/08 06:42:45;;;;;;;;;42.33;36.67;;;;;22.08;59.05;100675.63;6230914;22;45425;-74
2023/06/08 06:45:11;;;;;;;;;45.33;36.33;;;;;22.27;58.50;100675.88;6235366;22;45735;-74
2023/06/08 06:47:38;;;;;;;;;44.00;37.33;;;;;22.50;58.68;100666.94;6239734;22;45987;-75
2023/06/08 06:50:06;;;;;;;;;38.67;33.67;;;;;22.66;57.89;100669.97;6243007;22;47377;-75
2023/06/08 06:52:32;;;;;;;;;46.33;39.00;;;;;22.71;58.51;100669.81;6243309;22;45473;-74
2023/06/08 06:55:02;;;;;;;;;47.67;39.33;;;;;22.88;57.73;100661.00;6245173;22;45334;-75
2023/06/08 06:57:28;;;;;;;;;43.67;37.00;;;;;22.81;57.54;100665.81;6246035;22;45287;-74
2023/06/08 06:59:55;;;;;;;;;51.67;41.67;;;;;22.80;57.43;100655.88;6241550;22;46781;-75
2023/06/08 07:02:22;;;;;;;;;43.67;38.00;;;;;22.92;57.75;100663.53;6246466;22;45339;-74
2023/06/08 07:04:48;;;;;;;;;46.33;37.67;;;;;22.90;57.29;100668.13;6243493;22;45442;-75
2023/06/08 07:07:14;;;;;;;;;51.00;39.33;;;;;22.92;57.96;100663.53;6218458;22;45332;-75
2023/06/08 07:09:48;;;;;;;;;43.67;37.67;;;;;23.01;57.56;100662.31;6241530;22;48035;-76
2023/06/08 07:12:13;;;;;;;;;47.00;38.33;;;;;23.02;57.66;100663.22;6244092;22;45443;-74
2023/06/08 07:14:39;;;;;;;;;44.67;37.00;;;;;23.15;56.90;100660.00;6245293;22;45445;-74
2023/06/08 07:17:04;;;;;;;;;44.33;37.00;;;;;23.27;57.04;100666.75;6244996;22;45412;-75
2023/06/08 07:19:30;;;;;;;;;45.33;38.67;;;;;23.39;56.48;100661.75;6243814;22;45688;-75
2023/06/08 07:21:55;;;;;;;;;43.00;36.67;;;;;23.36;56.35;100669.09;6246450;22;45416;-75
2023/06/08 07:24:21;;;;;;;;;51.67;41.67;;;;;23.42;56.33;100667.09;6245557;22;45449;-73
2023/06/08 07:26:47;;;;;;;;;41.00;36.00;;;;;23.32;56.50;100661.13;6246495;22;45572;-73
2023/06/08 07:29:13;;;;;;;;;42.00;36.00;;;;;23.33;56.23;100662.94;6243204;22;47925;-73
2023/06/08 07:31:39;;;;;;;;;47.67;40.00;;;;;23.40;56.10;100652.69;6245185;22;45727;-72
2023/06/08 07:34:06;;;;;;;;;46.33;38.67;;;;;23.42;56.17;100656.22;6241686;22;45611;-73
2023/06/08 07:36:35;;;;;;;;;44.33;37.67;;;;;23.47;56.60;100648.75;6244569;22;45448;-74
2023/06/08 07:39:03;;;;;;;;;40.33;36.00;;;;;23.61;56.44;100657.22;6247141;22;45356;-73
2023/06/08 07:41:37;;;;;;;;;47.67;39.00;;;;;23.62;55.47;100653.56;6246230;22;45379;-74
2023/06/08 07:44:06;;;;;;;;;42.33;36.00;;;;;23.56;55.79;100653.84;6245975;22;45383;-74
2023/06/08 07:47:02;;;;;;;;;;;;;;;;;;;;;
2023/06/08 07:50:05;;;;;;;;;;;;;;;;;;;;;
2023/06/08 07:56:06;;;;;;;;;;;;;;;;;;;;;
2023/06/08 08:02:09;;;;;;;;;43.67;36.67;;;;;23.73;55.01;100607.84;6170412;23;46253;-73
2023/06/08 08:08:28;;;;;;;;;;;;;;;;;;;;;
2023/06/08 08:11:10;;;;;;;;;;;;;;;;;;;;;
2023/06/08 08:14:12;;;;;;;;;;;;;;;;;;;;;
2023/06/08 08:20:07;;;;;;;;;43.67;36.67;;;;;23.96;55.45;100620.47;6181875;23;45468;-76
2023/06/08 08:22:36;;;;;;;;;39.00;35.00;;;;;24.13;55.24;100627.00;6180645;23;45334;-77
2023/06/08 08:25:10;;;;;;;;;41.00;35.33;;;;;24.27;54.97;100656.28;6154616;23;47428;-75
2023/06/08 08:27:36;;;;;;;;;42.00;37.33;;;;;24.20;55.14;100638.47;6155639;23;45327;-76
2023/06/08 08:30:03;;;;;;;;;46.67;39.33;;;;;24.13;55.58;100643.28;6180479;23;45431;-76
2023/06/08 08:32:32;;;;;;;;;39.67;35.00;;;;;24.13;55.52;100638.72;6155372;23;45317;-76
2023/06/08 08:34:57;;;;;;;;;30.33;30.00;;;;;24.26;55.21;100633.66;6177122;23;47857;-76
2023/06/08 08:37:26;;;;;;;;;39.67;33.67;;;;;24.21;55.10;100629.38;6179927;23;45859;-76
2023/06/08 08:39:58;;;;;;;;;34.00;32.33;;;;;24.30;55.26;100624.41;6157026;23;45445;-77
2023/06/08 08:42:36;;;;;;;;;46.33;38.67;;;;;24.39;55.13;100633.97;6181815;23;45415;-77
2023/06/08 08:45:07;;;;;;;;;46.00;37.67;;;;;24.35;55.55;100625.06;6181000;23;45440;-76
2023/06/08 08:47:33;;;;;;;;;43.00;36.00;;;;;24.27;55.37;100619.09;6182739;23;45875;-74
2023/06/08 08:50:16;;;;;;;;;42.00;36.00;;;;;24.42;55.00;100625.69;6156416;23;45455;-76
2023/06/08 08:52:44;;;;;;;;;44.00;36.67;;;;;24.47;55.38;100620.91;6181013;23;45378;-74
2023/06/08 08:55:10;;;;;;;;;44.33;36.33;;;;;24.55;54.70;100616.03;6180844;23;45459;-73
2023/06/08 08:57:36;;;;;;;;;42.00;36.33;;;;;24.67;54.65;100616.44;6226402;22;45464;-73
2023/06/08 09:00:06;;;;;;;;;39.00;32.67;;;;;24.83;54.47;100606.59;6243779;22;45400;-73
2023/06/08 09:02:36;;;;;;;;;23.67;23.00;;;;;24.97;54.12;100607.81;6247811;22;45430;-73
2023/06/08 09:05:10;;;;;;;;;42.67;36.33;;;;;25.21;53.82;100608.41;6249474;22;45845;-74
2023/06/08 09:07:37;;;;;;;;;39.67;34.00;;;;;25.14;53.72;100610.56;6247576;22;45298;-75
2023/06/08 09:10:20;;;;;;;;;24.67;24.67;;;;;25.28;53.78;100605.34;6245580;22;45514;-74
2023/06/08 09:12:50;;;;;;;;;35.00;31.67;;;;;25.35;53.35;100614.13;6245666;22;45399;-73
2023/06/08 09:15:28;;;;;;;;;40.00;35.33;;;;;25.29;53.15;100607.13;6244156;22;46079;-74
2023/06/08 09:18:02;;;;;;;;;43.67;33.67;;;;;25.15;53.05;100598.75;6244712;22;45452;-73
2023/06/08 09:20:32;;;;;;;;;38.00;32.67;;;;;25.11;53.14;100611.59;6246307;22;45342;-74
2023/06/08 09:23:14;;;;;;;;;36.33;33.33;;;;;25.02;53.59;100600.28;6244816;22;45454;-74
2023/06/08 09:25:40;;;;;;;;;35.00;32.00;;;;;25.05;53.62;100600.16;6245594;22;46916;-75
2023/06/08 09:28:25;;;;;;;;;30.33;30.00;;;;;25.25;52.96;100612.78;6246331;22;45436;-74
2023/06/08 09:35:01;;;;;;;;;36.33;33.00;;;;;25.21;53.15;100600.25;6248408;22;45952;-73
2023/06/08 09:37:42;;;;;;;;;31.67;30.67;;;;;25.20;53.06;100596.66;6218196;22;47815;-73
2023/06/08 09:40:17;;;;;;;;;33.00;31.00;;;;;25.12;53.31;100596.16;6246195;22;45371;-73
2023/06/08 09:42:50;;;;;;;;;34.00;30.67;;;;;25.23;53.16;100585.66;6245262;22;45766;-73
2023/06/08 09:45:17;;;;;;;;;29.67;29.33;;;;;25.31;52.59;100591.63;6245923;22;45295;-73
2023/06/08 09:47:43;;;;;;;;;37.00;34.00;;;;;25.35;52.70;100598.66;6242791;22;46652;-76
2023/06/08 09:50:10;;;;;;;;;33.67;32.00;;;;;25.39;52.29;100593.06;6218215;22;45480;-75
2023/06/08 09:52:37;;;;;;;;;35.33;31.67;;;;;25.39;52.94;100593.06;6192977;22;45385;-76
2023/06/08 09:55:03;;;;;;;;;33.00;31.33;;;;;25.39;53.17;100584.88;6245818;22;45428;-77
2023/06/08 09:57:37;;;;;;;;;30.67;30.00;;;;;25.62;53.44;100584.63;6246267;22;45394;-75
2023/06/08 10:00:18;;;;;;;;;35.33;32.67;;;;;25.74;52.51;100583.97;6216698;22;45620;-76
2023/06/08 10:03:14;;;;;;;;;30.00;29.00;;;;;25.92;51.64;100581.31;6244594;22;45740;-76
2023/06/08 10:05:45;;;;;;;;;33.67;32.00;;;;;25.84;50.02;100583.50;6217575;22;45325;-76
2023/06/08 10:08:19;;;;;;;;;27.33;27.33;;;;;25.68;49.92;100570.69;6244549;22;45493;-75
2023/06/08 10:10:47;;;;;;;;;31.00;29.67;;;;;25.69;49.65;100577.91;6245425;22;45391;-76
2023/06/08 10:13:18;;;;;;;;;22.00;22.00;;;;;25.77;50.54;100577.47;6244720;22;45379;-75
2023/06/08 10:15:54;;;;;;;;;34.00;29.00;;;;;25.92;50.12;100584.03;6245013;22;45446;-74
2023/06/08 10:18:21;;;;;;;;;29.33;27.00;;;;;25.86;49.37;100562.53;6217167;22;46759;-75
2023/06/08 10:21:02;;;;;;;;;;;;;;;;;;;;;
2023/06/08 10:23:36;;;;;;;;;28.67;28.33;;;;;26.09;50.54;100570.38;6244718;22;69247;-76
2023/06/08 10:26:04;;;;;;;;;29.00;28.67;;;;;26.11;49.99;100563.00;6245703;22;45685;-75
2023/06/08 10:28:36;;;;;;;;;28.00;28.00;;;;;26.26;49.80;100564.03;6245011;22;45985;-75
2023/06/08 10:31:37;;;;;;;;;25.67;25.33;;;;;26.46;48.97;100562.03;6216715;22;44790;-76
2023/06/08 10:34:12;;;;;;;;;27.00;27.00;;;;;26.56;49.08;100552.38;6242961;22;45411;-74
2023/06/08 10:36:39;;;;;;;;;32.33;30.00;;;;;26.57;46.98;100556.00;6244459;22;45259;-76
2023/06/08 10:39:12;;;;;;;;;34.00;31.00;;;;;26.64;47.67;100543.81;6245724;22;45625;-76
2023/06/08 10:41:59;;;;;;;;;31.33;29.67;;;;;26.65;47.58;100545.59;6245202;22;45397;-75
2023/06/08 10:44:26;;;;;;;;;34.00;32.00;;;;;26.63;47.69;100547.53;6245675;22;45399;-76
2023/06/08 10:47:13;;;;;;;;;28.67;27.00;;;;;26.77;47.31;100547.63;6245484;22;45875;-76
2023/06/08 10:49:51;;;;;;;;;35.00;31.00;;;;;26.72;47.65;100542.44;6242320;22;45466;-78
2023/06/08 10:52:21;;;;;;;;;31.00;28.00;;;;;26.62;47.10;100534.84;6268949;22;45500;-75
2023/06/08 10:55:01;;;;;;;;;28.67;28.67;;;;;26.68;47.28;100527.22;6244700;22;45354;-76
2023/06/08 10:57:38;;;;;;;;;43.33;36.33;;;;;26.83;46.65;100524.56;6269231;22;45444;-76
2023/06/08 11:00:29;;;;;;;;;33.00;31.00;;;;;26.92;46.49;100532.22;6246002;22;45293;-76
2023/06/08 11:03:05;;;;;;;;;34.33;31.33;;;;;26.88;46.29;100520.59;6247991;22;45479;-74
2023/06/08 11:05:35;;;;;;;;;29.00;28.00;;;;;26.86;44.40;100525.25;6253649;22;45323;-76
2023/06/08 11:08:07;;;;;;;;;31.67;30.33;;;;;26.88;46.57;100514.25;6243831;22;45405;-75
2023/06/08 11:10:37;;;;;;;;;31.67;30.67;;;;;26.88;46.21;100512.41;6239804;22;47433;-75
2023/06/08 11:13:13;;;;;;;;;29.67;27.00;;;;;27.10;43.65;100517.50;6240976;22;45540;-75
2023/06/08 11:16:01;;;;;;;;;32.33;31.00;;;;;27.04;44.28;100508.78;6243738;22;45385;-74
2023/06/08 11:18:29;;;;;;;;;24.33;24.33;;;;;27.08;45.22;100496.72;6241112;22;45421;-73
2023/06/08 11:20:58;;;;;;;;;33.33;31.67;;;;;27.13;45.03;100494.63;6240346;22;45416;-74
2023/06/08 11:23:24;;;;;;;;;30.33;29.67;;;;;27.29;45.29;100495.50;6243261;22;44914;-76
2023/06/08 11:29:21;;;;;;;;;28.00;26.33;;;;;27.64;43.08;100508.00;6243472;22;45389;-75
2023/06/08 11:31:46;;;;;;;;;23.67;23.67;;;;;27.54;40.63;100496.75;6243552;22;46042;-74
2023/06/08 11:34:13;;;;;;;;;27.33;27.33;;;;;27.58;42.50;100500.16;6242467;22;45738;-76
2023/06/08 11:36:48;;;;;;;;;27.67;27.67;;;;;27.59;42.20;100500.09;6239383;22;45535;-75
2023/06/08 11:39:29;;;;;;;;;32.67;31.00;;;;;27.69;42.82;100486.72;6245000;22;45329;-76
2023/06/08 11:41:55;;;;;;;;;35.00;32.67;;;;;27.70;42.98;100478.44;6244625;22;45345;-76
2023/06/08 11:44:25;;;;;;;;;27.67;26.00;;;;;27.96;42.60;100477.84;6240908;22;45396;-75
2023/06/08 11:46:51;;;;;;;;;26.33;26.33;;;;;27.90;39.76;100477.22;6240267;22;45440;-75
2023/06/08 11:49:17;;;;;;;;;27.33;25.33;;;;;27.96;41.82;100473.25;6241771;22;45601;-75
2023/06/08 11:51:47;;;;;;;;;30.33;27.67;;;;;28.06;41.55;100474.41;6242732;22;45713;-75